sensor_id;sensor_type;location;lat;lon;timestamp;temperature;humidity
35381;DHT22;21486;51.916;8.378;2023-06-24T00:00:35;16.20;99.90
35381;DHT22;21486;51.916;8.378;2023-06-24T00:03:02;16.20;99.90
35381;DHT22;21486;51.916;8.378;2023-06-24T00:05:28;16.20;99.90
35381;DHT22;21486;51.916;8.378;2023-06-24T00:07:53;16.10;99.90
35381;DHT22;21486;51.916;8.378;2023-06-24T00:10:22;16.10;99.90
35381;DHT22;21486;51.916;8.378;2023-06-24T00:12:48;16.10;99.90
35381;DHT22;21486;51.916;8.378;2023-06-24T00:15:13;16.10;99.90
35381;DHT22;21486;51.916;8.378;2023-06-24T00:17:39;16.10;99.90
35381;DHT22;21486;51.916;8.378;2023-06-24T00:20:06;16.10;99.90
35381;DHT22;21486;51.916;8.378;2023-06-24T00:22:34;16.00;99.90
35381;DHT22;21486;51.916;8.378;2023-06-24T00:25:00;16.00;99.90
35381;DHT22;21486;51.916;8.378;2023-06-24T00:27:26;16.00;99.90
35381;DHT22;21486;51.916;8.378;2023-06-24T00:29:51;15.90;99.90
35381;DHT22;21486;51.916;8.378;2023-06-24T00:33:02;15.90;99.90
35381;DHT22;21486;51.916;8.378;2023-06-24T00:35:28;15.90;99.90
35381;DHT22;21486;51.916;8.378;2023-06-24T00:37:53;16.00;99.90
35381;DHT22;21486;51.916;8.378;2023-06-24T00:40:23;15.80;99.90
35381;DHT22;21486;51.916;8.378;2023-06-24T00:42:49;15.80;99.90
35381;DHT22;21486;51.916;8.378;2023-06-24T00:45:15;15.80;99.90
35381;DHT22;21486;51.916;8.378;2023-06-24T00:47:41;15.80;99.90
35381;DHT22;21486;51.916;8.378;2023-06-24T00:50:08;15.80;99.90
35381;DHT22;21486;51.916;8.378;2023-06-24T00:52:34;15.80;99.90
35381;DHT22;21486;51.916;8.378;2023-06-24T00:55:02;15.90;99.90
35381;DHT22;21486;51.916;8.378;2023-06-24T00:57:28;15.80;99.90
35381;DHT22;21486;51.916;8.378;2023-06-24T00:59:54;15.80;99.90
35381;DHT22;21486;51.916;8.378;2023-06-24T01:02:22;15.70;99.90
35381;DHT22;21486;51.916;8.378;2023-06-24T01:04:54;15.70;99.90
35381;DHT22;21486;51.916;8.378;2023-06-24T01:07:20;15.70;99.90
35381;DHT22;21486;51.916;8.378;2023-06-24T01:09:46;15.80;99.90
35381;DHT22;21486;51.916;8.378;2023-06-24T01:12:11;15.80;99.90
35381;DHT22;21486;51.916;8.378;2023-06-24T01:14:37;15.70;99.90
35381;DHT22;21486;51.916;8.378;2023-06-24T01:17:12;15.70;99.90
35381;DHT22;21486;51.916;8.378;2023-06-24T01:28:05;15.50;99.90
35381;DHT22;21486;51.916;8.378;2023-06-24T01:33:36;15.50;99.90
35381;DHT22;21486;51.916;8.378;2023-06-24T01:36:06;15.50;99.90
35381;DHT22;21486;51.916;8.378;2023-06-24T01:38:38;15.50;99.90
35381;DHT22;21486;51.916;8.378;2023-06-24T01:41:08;15.60;99.90
35381;DHT22;21486;51.916;8.378;2023-06-24T01:43:35;15.50;99.90
35381;DHT22;21486;51.916;8.378;2023-06-24T01:46:03;15.40;99.90
35381;DHT22;21486;51.916;8.378;2023-06-24T01:48:32;15.40;99.90
35381;DHT22;21486;51.916;8.378;2023-06-24T01:53:39;15.30;99.90
35381;DHT22;21486;51.916;8.378;2023-06-24T01:56:11;15.40;99.90
35381;DHT22;21486;51.916;8.378;2023-06-24T01:58:38;15.30;99.90
35381;DHT22;21486;51.916;8.378;2023-06-24T02:01:06;15.30;99.90
35381;DHT22;21486;51.916;8.378;2023-06-24T02:03:33;15.30;99.90
35381;DHT22;21486;51.916;8.378;2023-06-24T02:06:00;15.20;99.90
35381;DHT22;21486;51.916;8.378;2023-06-24T02:08:30;15.20;99.90
35381;DHT22;21486;51.916;8.378;2023-06-24T02:10:56;15.20;99.90
35381;DHT22;21486;51.916;8.378;2023-06-24T02:13:24;15.20;99.90
35381;DHT22;21486;51.916;8.378;2023-06-24T02:15:50;15.20;99.90
35381;DHT22;21486;51.916;8.378;2023-06-24T02:18:17;15.10;99.90
35381;DHT22;21486;51.916;8.378;2023-06-24T02:20:44;15.10;99.90
35381;DHT22;21486;51.916;8.378;2023-06-24T02:23:11;15.00;99.90
35381;DHT22;21486;51.916;8.378;2023-06-24T02:25:38;15.00;99.90
35381;DHT22;21486;51.916;8.378;2023-06-24T02:28:06;15.00;99.90
35381;DHT22;21486;51.916;8.378;2023-06-24T02:30:32;15.00;99.90
35381;DHT22;21486;51.916;8.378;2023-06-24T02:32:59;14.90;99.90
35381;DHT22;21486;51.916;8.378;2023-06-24T02:35:25;14.90;99.90
35381;DHT22;21486;51.916;8.378;2023-06-24T02:37:50;14.90;99.90
35381;DHT22;21486;51.916;8.378;2023-06-24T02:40:16;14.80;99.90
35381;DHT22;21486;51.916;8.378;2023-06-24T02:42:42;14.80;99.90
35381;DHT22;21486;51.916;8.378;2023-06-24T02:45:08;14.80;99.90
35381;DHT22;21486;51.916;8.378;2023-06-24T02:47:35;14.80;99.90
35381;DHT22;21486;51.916;8.378;2023-06-24T02:50:03;14.80;99.90
35381;DHT22;21486;51.916;8.378;2023-06-24T02:52:30;14.70;99.90
35381;DHT22;21486;51.916;8.378;2023-06-24T02:54:57;14.70;99.90
35381;DHT22;21486;51.916;8.378;2023-06-24T02:57:25;14.70;99.90
35381;DHT22;21486;51.916;8.378;2023-06-24T02:59:51;14.70;99.90
35381;DHT22;21486;51.916;8.378;2023-06-24T03:02:17;14.70;99.90
35381;DHT22;21486;51.916;8.378;2023-06-24T03:04:43;14.70;99.90
35381;DHT22;21486;51.916;8.378;2023-06-24T03:07:10;14.60;99.90
35381;DHT22;21486;51.916;8.378;2023-06-24T03:09:36;14.60;99.90
35381;DHT22;21486;51.916;8.378;2023-06-24T03:12:02;14.60;99.90
35381;DHT22;21486;51.916;8.378;2023-06-24T03:14:28;14.60;99.90
35381;DHT22;21486;51.916;8.378;2023-06-24T03:16:53;14.60;99.90
35381;DHT22;21486;51.916;8.378;2023-06-24T03:19:19;14.60;99.90
35381;DHT22;21486;51.916;8.378;2023-06-24T03:21:45;14.60;99.90
35381;DHT22;21486;51.916;8.378;2023-06-24T03:24:10;14.70;99.90
35381;DHT22;21486;51.916;8.378;2023-06-24T03:26:38;14.70;99.90
35381;DHT22;21486;51.916;8.378;2023-06-24T03:29:04;14.70;99.90
35381;DHT22;21486;51.916;8.378;2023-06-24T03:31:30;14.80;99.90
35381;DHT22;21486;51.916;8.378;2023-06-24T03:33:55;14.80;99.90
35381;DHT22;21486;51.916;8.378;2023-06-24T03:36:21;14.80;99.90
35381;DHT22;21486;51.916;8.378;2023-06-24T03:38:47;14.80;99.90
35381;DHT22;21486;51.916;8.378;2023-06-24T03:41:12;14.90;99.90
35381;DHT22;21486;51.916;8.378;2023-06-24T03:43:39;14.80;99.90
35381;DHT22;21486;51.916;8.378;2023-06-24T03:46:04;14.80;99.90
35381;DHT22;21486;51.916;8.378;2023-06-24T03:48:30;14.90;99.90
35381;DHT22;21486;51.916;8.378;2023-06-24T03:50:55;14.90;99.90
35381;DHT22;21486;51.916;8.378;2023-06-24T03:53:21;14.90;99.90
35381;DHT22;21486;51.916;8.378;2023-06-24T03:55:47;15.00;99.90
35381;DHT22;21486;51.916;8.378;2023-06-24T03:58:12;15.10;99.90
35381;DHT22;21486;51.916;8.378;2023-06-24T04:00:39;15.20;99.90
35381;DHT22;21486;51.916;8.378;2023-06-24T04:03:06;15.20;99.90
35381;DHT22;21486;51.916;8.378;2023-06-24T04:05:33;15.20;99.90
35381;DHT22;21486;51.916;8.378;2023-06-24T04:07:58;15.30;99.90
35381;DHT22;21486;51.916;8.378;2023-06-24T04:10:24;15.20;99.90
35381;DHT22;21486;51.916;8.378;2023-06-24T04:12:50;15.30;99.90
35381;DHT22;21486;51.916;8.378;2023-06-24T04:15:15;15.20;99.90
35381;DHT22;21486;51.916;8.378;2023-06-24T04:17:41;15.30;99.90
35381;DHT22;21486;51.916;8.378;2023-06-24T04:20:06;15.40;99.90
35381;DHT22;21486;51.916;8.378;2023-06-24T04:22:37;15.40;99.90
35381;DHT22;21486;51.916;8.378;2023-06-24T04:25:04;15.50;99.90
35381;DHT22;21486;51.916;8.378;2023-06-24T04:27:31;15.70;99.90
35381;DHT22;21486;51.916;8.378;2023-06-24T04:29:57;16.00;99.90
35381;DHT22;21486;51.916;8.378;2023-06-24T04:32:22;16.20;99.90
35381;DHT22;21486;51.916;8.378;2023-06-24T04:34:48;16.20;99.90
35381;DHT22;21486;51.916;8.378;2023-06-24T04:37:13;16.30;99.90
35381;DHT22;21486;51.916;8.378;2023-06-24T04:39:39;16.40;99.90
35381;DHT22;21486;51.916;8.378;2023-06-24T04:42:04;16.60;99.90
35381;DHT22;21486;51.916;8.378;2023-06-24T04:44:31;16.70;99.90
35381;DHT22;21486;51.916;8.378;2023-06-24T04:46:56;17.20;99.90
35381;DHT22;21486;51.916;8.378;2023-06-24T04:49:22;17.60;99.90
35381;DHT22;21486;51.916;8.378;2023-06-24T04:51:47;18.50;99.90
35381;DHT22;21486;51.916;8.378;2023-06-24T04:54:13;19.30;99.90
35381;DHT22;21486;51.916;8.378;2023-06-24T04:56:39;20.70;99.90
35381;DHT22;21486;51.916;8.378;2023-06-24T04:59:05;21.60;95.30
35381;DHT22;21486;51.916;8.378;2023-06-24T05:01:30;21.90;93.70
35381;DHT22;21486;51.916;8.378;2023-06-24T05:03:56;22.40;90.50
35381;DHT22;21486;51.916;8.378;2023-06-24T05:06:21;22.70;89.50
35381;DHT22;21486;51.916;8.378;2023-06-24T05:08:47;22.80;86.30
35381;DHT22;21486;51.916;8.378;2023-06-24T05:11:12;22.80;85.10
35381;DHT22;21486;51.916;8.378;2023-06-24T05:13:38;23.10;83.20
35381;DHT22;21486;51.916;8.378;2023-06-24T05:16:03;23.40;82.10
35381;DHT22;21486;51.916;8.378;2023-06-24T05:18:29;23.50;80.60
35381;DHT22;21486;51.916;8.378;2023-06-24T05:20:54;24.10;78.40
35381;DHT22;21486;51.916;8.378;2023-06-24T05:23:20;23.60;76.60
35381;DHT22;21486;51.916;8.378;2023-06-24T05:25:45;23.40;77.60
35381;DHT22;21486;51.916;8.378;2023-06-24T05:28:11;23.80;76.80
35381;DHT22;21486;51.916;8.378;2023-06-24T05:30:36;23.60;75.30
35381;DHT22;21486;51.916;8.378;2023-06-24T05:33:02;23.20;75.70
35381;DHT22;21486;51.916;8.378;2023-06-24T05:35:28;22.80;77.80
35381;DHT22;21486;51.916;8.378;2023-06-24T05:37:53;22.40;79.10
35381;DHT22;21486;51.916;8.378;2023-06-24T05:40:19;22.40;80.50
35381;DHT22;21486;51.916;8.378;2023-06-24T05:42:44;23.20;78.30
35381;DHT22;21486;51.916;8.378;2023-06-24T05:45:10;23.50;78.20
35381;DHT22;21486;51.916;8.378;2023-06-24T05:47:36;23.40;78.00
35381;DHT22;21486;51.916;8.378;2023-06-24T05:50:02;23.60;76.80
35381;DHT22;21486;51.916;8.378;2023-06-24T05:52:28;24.30;75.40
35381;DHT22;21486;51.916;8.378;2023-06-24T05:54:54;24.40;74.10
35381;DHT22;21486;51.916;8.378;2023-06-24T05:57:20;24.60;73.00
35381;DHT22;21486;51.916;8.378;2023-06-24T05:59:45;25.00;71.70
35381;DHT22;21486;51.916;8.378;2023-06-24T06:02:10;25.30;70.20
35381;DHT22;21486;51.916;8.378;2023-06-24T06:04:36;25.80;68.40
35381;DHT22;21486;51.916;8.378;2023-06-24T06:07:02;26.40;65.60
35381;DHT22;21486;51.916;8.378;2023-06-24T06:09:27;26.70;64.30
35381;DHT22;21486;51.916;8.378;2023-06-24T06:11:53;26.90;62.90
35381;DHT22;21486;51.916;8.378;2023-06-24T06:14:18;26.80;62.70
35381;DHT22;21486;51.916;8.378;2023-06-24T06:16:44;25.80;63.10
35381;DHT22;21486;51.916;8.378;2023-06-24T06:19:09;25.80;64.10
35381;DHT22;21486;51.916;8.378;2023-06-24T06:21:36;25.20;65.70
35381;DHT22;21486;51.916;8.378;2023-06-24T06:24:02;25.90;66.50
35381;DHT22;21486;51.916;8.378;2023-06-24T06:26:27;26.70;63.70
35381;DHT22;21486;51.916;8.378;2023-06-24T06:28:53;27.40;61.70
35381;DHT22;21486;51.916;8.378;2023-06-24T06:31:19;27.50;61.50
35381;DHT22;21486;51.916;8.378;2023-06-24T06:33:44;26.90;61.10
35381;DHT22;21486;51.916;8.378;2023-06-24T06:36:10;27.70;60.40
35381;DHT22;21486;51.916;8.378;2023-06-24T06:38:35;28.00;59.00
35381;DHT22;21486;51.916;8.378;2023-06-24T06:41:01;28.20;58.40
35381;DHT22;21486;51.916;8.378;2023-06-24T06:43:26;28.40;57.80
35381;DHT22;21486;51.916;8.378;2023-06-24T06:45:52;28.20;57.90
35381;DHT22;21486;51.916;8.378;2023-06-24T06:48:17;28.30;57.60
35381;DHT22;21486;51.916;8.378;2023-06-24T06:50:43;29.00;55.60
35381;DHT22;21486;51.916;8.378;2023-06-24T06:53:09;29.40;55.20
35381;DHT22;21486;51.916;8.378;2023-06-24T06:55:35;29.70;54.80
35381;DHT22;21486;51.916;8.378;2023-06-24T06:58:01;30.10;53.90
35381;DHT22;21486;51.916;8.378;2023-06-24T07:00:26;29.70;54.60
35381;DHT22;21486;51.916;8.378;2023-06-24T07:02:52;30.20;54.20
35381;DHT22;21486;51.916;8.378;2023-06-24T07:05:17;30.20;53.60
35381;DHT22;21486;51.916;8.378;2023-06-24T07:07:43;28.00;55.20
35381;DHT22;21486;51.916;8.378;2023-06-24T07:10:10;28.80;56.30
35381;DHT22;21486;51.916;8.378;2023-06-24T07:12:36;29.70;55.00
35381;DHT22;21486;51.916;8.378;2023-06-24T07:15:01;30.10;52.20
35381;DHT22;21486;51.916;8.378;2023-06-24T07:17:27;29.30;53.20
35381;DHT22;21486;51.916;8.378;2023-06-24T07:19:52;29.40;52.60
35381;DHT22;21486;51.916;8.378;2023-06-24T07:22:18;29.10;53.90
35381;DHT22;21486;51.916;8.378;2023-06-24T07:24:43;29.50;54.20
35381;DHT22;21486;51.916;8.378;2023-06-24T07:27:09;30.40;52.00
35381;DHT22;21486;51.916;8.378;2023-06-24T07:29:34;30.30;52.80
35381;DHT22;21486;51.916;8.378;2023-06-24T07:32:00;30.00;51.80
35381;DHT22;21486;51.916;8.378;2023-06-24T07:34:25;29.10;53.20
35381;DHT22;21486;51.916;8.378;2023-06-24T07:36:51;29.20;53.70
35381;DHT22;21486;51.916;8.378;2023-06-24T07:39:16;29.50;54.80
35381;DHT22;21486;51.916;8.378;2023-06-24T07:41:42;30.40;53.50
35381;DHT22;21486;51.916;8.378;2023-06-24T07:44:08;29.30;53.60
35381;DHT22;21486;51.916;8.378;2023-06-24T07:46:33;28.80;55.20
35381;DHT22;21486;51.916;8.378;2023-06-24T07:48:59;29.00;55.90
35381;DHT22;21486;51.916;8.378;2023-06-24T07:51:24;30.20;53.40
35381;DHT22;21486;51.916;8.378;2023-06-24T07:53:50;31.10;52.30
35381;DHT22;21486;51.916;8.378;2023-06-24T07:56:15;31.60;50.30
35381;DHT22;21486;51.916;8.378;2023-06-24T07:58:41;31.30;50.40
35381;DHT22;21486;51.916;8.378;2023-06-24T08:01:06;32.00;49.70
35381;DHT22;21486;51.916;8.378;2023-06-24T08:03:32;32.70;47.50
35381;DHT22;21486;51.916;8.378;2023-06-24T08:05:57;33.00;47.80
35381;DHT22;21486;51.916;8.378;2023-06-24T08:08:22;33.30;45.60
35381;DHT22;21486;51.916;8.378;2023-06-24T08:10:48;34.10;46.30
35381;DHT22;21486;51.916;8.378;2023-06-24T08:13:13;34.00;46.80
35381;DHT22;21486;51.916;8.378;2023-06-24T08:15:39;33.60;43.90
35381;DHT22;21486;51.916;8.378;2023-06-24T08:18:04;33.60;44.90
35381;DHT22;21486;51.916;8.378;2023-06-24T08:20:30;33.10;45.70
35381;DHT22;21486;51.916;8.378;2023-06-24T08:22:55;33.10;46.80
35381;DHT22;21486;51.916;8.378;2023-06-24T08:25:21;33.60;46.50
35381;DHT22;21486;51.916;8.378;2023-06-24T08:27:46;33.20;45.90
35381;DHT22;21486;51.916;8.378;2023-06-24T08:30:13;33.40;45.90
35381;DHT22;21486;51.916;8.378;2023-06-24T08:32:38;33.00;45.50
35381;DHT22;21486;51.916;8.378;2023-06-24T08:35:06;33.40;46.50
35381;DHT22;21486;51.916;8.378;2023-06-24T08:37:31;32.40;44.00
35381;DHT22;21486;51.916;8.378;2023-06-24T08:39:57;32.60;45.00
35381;DHT22;21486;51.916;8.378;2023-06-24T08:42:22;32.30;47.40
35381;DHT22;21486;51.916;8.378;2023-06-24T08:44:48;31.80;45.90
35381;DHT22;21486;51.916;8.378;2023-06-24T08:47:13;32.40;45.90
35381;DHT22;21486;51.916;8.378;2023-06-24T08:49:44;33.40;47.30
35381;DHT22;21486;51.916;8.378;2023-06-24T08:52:12;33.10;45.40
35381;DHT22;21486;51.916;8.378;2023-06-24T08:54:39;32.60;45.70
35381;DHT22;21486;51.916;8.378;2023-06-24T08:57:05;32.60;47.60
35381;DHT22;21486;51.916;8.378;2023-06-24T08:59:36;32.20;46.90
35381;DHT22;21486;51.916;8.378;2023-06-24T09:02:02;31.90;46.80
35381;DHT22;21486;51.916;8.378;2023-06-24T09:04:27;31.90;49.40
35381;DHT22;21486;51.916;8.378;2023-06-24T09:06:53;32.20;47.00
35381;DHT22;21486;51.916;8.378;2023-06-24T09:09:21;32.30;47.40
35381;DHT22;21486;51.916;8.378;2023-06-24T09:12:05;32.40;47.50
35381;DHT22;21486;51.916;8.378;2023-06-24T09:14:35;32.50;47.90
35381;DHT22;21486;51.916;8.378;2023-06-24T09:17:01;32.70;45.50
35381;DHT22;21486;51.916;8.378;2023-06-24T09:19:27;32.90;46.40
35381;DHT22;21486;51.916;8.378;2023-06-24T09:22:01;32.40;46.10
35381;DHT22;21486;51.916;8.378;2023-06-24T09:24:27;32.10;48.60
35381;DHT22;21486;51.916;8.378;2023-06-24T09:26:55;31.60;47.50
35381;DHT22;21486;51.916;8.378;2023-06-24T09:29:22;32.10;48.30
35381;DHT22;21486;51.916;8.378;2023-06-24T09:31:50;33.40;47.20
35381;DHT22;21486;51.916;8.378;2023-06-24T09:34:18;33.00;47.90
35381;DHT22;21486;51.916;8.378;2023-06-24T09:36:44;31.70;48.10
35381;DHT22;21486;51.916;8.378;2023-06-24T09:39:10;31.50;50.30
35381;DHT22;21486;51.916;8.378;2023-06-24T09:41:35;31.70;50.40
35381;DHT22;21486;51.916;8.378;2023-06-24T09:44:02;32.00;47.60
35381;DHT22;21486;51.916;8.378;2023-06-24T09:46:29;32.40;48.50
35381;DHT22;21486;51.916;8.378;2023-06-24T09:48:55;33.00;47.30
35381;DHT22;21486;51.916;8.378;2023-06-24T09:51:21;33.90;46.40
35381;DHT22;21486;51.916;8.378;2023-06-24T09:53:48;34.60;45.10
35381;DHT22;21486;51.916;8.378;2023-06-24T09:56:14;34.30;45.60
35381;DHT22;21486;51.916;8.378;2023-06-24T09:58:40;33.80;46.70
35381;DHT22;21486;51.916;8.378;2023-06-24T10:01:06;33.50;47.20
35381;DHT22;21486;51.916;8.378;2023-06-24T10:03:32;33.30;45.80
35381;DHT22;21486;51.916;8.378;2023-06-24T10:05:59;33.80;46.30
35381;DHT22;21486;51.916;8.378;2023-06-24T10:08:24;32.80;46.50
35381;DHT22;21486;51.916;8.378;2023-06-24T10:10:50;31.70;50.00
35381;DHT22;21486;51.916;8.378;2023-06-24T10:13:15;32.30;48.40
35381;DHT22;21486;51.916;8.378;2023-06-24T10:15:41;33.50;48.30
35381;DHT22;21486;51.916;8.378;2023-06-24T10:20:51;32.80;48.10
35381;DHT22;21486;51.916;8.378;2023-06-24T10:23:16;32.00;49.60
35381;DHT22;21486;51.916;8.378;2023-06-24T10:25:42;31.00;49.90
35381;DHT22;21486;51.916;8.378;2023-06-24T10:28:09;30.30;48.40
35381;DHT22;21486;51.916;8.378;2023-06-24T10:30:34;30.60;49.10
35381;DHT22;21486;51.916;8.378;2023-06-24T10:33:01;30.60;47.50
35381;DHT22;21486;51.916;8.378;2023-06-24T10:35:27;31.40;49.80
35381;DHT22;21486;51.916;8.378;2023-06-24T10:37:57;31.40;47.50
35381;DHT22;21486;51.916;8.378;2023-06-24T10:40:36;31.60;46.80
35381;DHT22;21486;51.916;8.378;2023-06-24T10:43:18;32.00;46.50
35381;DHT22;21486;51.916;8.378;2023-06-24T10:45:48;31.90;46.80
35381;DHT22;21486;51.916;8.378;2023-06-24T10:48:15;32.10;47.70
35381;DHT22;21486;51.916;8.378;2023-06-24T10:50:40;32.10;45.50
35381;DHT22;21486;51.916;8.378;2023-06-24T10:53:07;32.20;47.00
35381;DHT22;21486;51.916;8.378;2023-06-24T10:55:33;31.90;45.90
35381;DHT22;21486;51.916;8.378;2023-06-24T10:58:07;31.90;45.50
35381;DHT22;21486;51.916;8.378;2023-06-24T11:00:33;32.50;46.30
35381;DHT22;21486;51.916;8.378;2023-06-24T11:03:07;32.90;43.70
35381;DHT22;21486;51.916;8.378;2023-06-24T11:05:32;33.20;45.40
35381;DHT22;21486;51.916;8.378;2023-06-24T11:07:58;33.50;44.20
35381;DHT22;21486;51.916;8.378;2023-06-24T11:10:23;34.10;44.50
35381;DHT22;21486;51.916;8.378;2023-06-24T11:12:49;33.90;43.70
35381;DHT22;21486;51.916;8.378;2023-06-24T11:15:15;34.10;44.30
35381;DHT22;21486;51.916;8.378;2023-06-24T11:17:40;34.40;43.60
35381;DHT22;21486;51.916;8.378;2023-06-24T11:20:07;34.20;42.80
35381;DHT22;21486;51.916;8.378;2023-06-24T11:22:33;33.80;42.10
35381;DHT22;21486;51.916;8.378;2023-06-24T11:24:59;33.50;45.00
35381;DHT22;21486;51.916;8.378;2023-06-24T11:27:28;33.50;44.10
35381;DHT22;21486;51.916;8.378;2023-06-24T11:29:54;32.70;45.50
35381;DHT22;21486;51.916;8.378;2023-06-24T11:32:20;32.50;45.00
35381;DHT22;21486;51.916;8.378;2023-06-24T11:34:46;32.00;46.20
35381;DHT22;21486;51.916;8.378;2023-06-24T11:37:12;32.00;48.00
35381;DHT22;21486;51.916;8.378;2023-06-24T11:39:38;32.20;45.30
35381;DHT22;21486;51.916;8.378;2023-06-24T11:42:05;32.60;43.90
35381;DHT22;21486;51.916;8.378;2023-06-24T11:44:31;33.20;44.10
35381;DHT22;21486;51.916;8.378;2023-06-24T11:47:03;34.10;43.60
35381;DHT22;21486;51.916;8.378;2023-06-24T11:49:29;34.00;43.20
35381;DHT22;21486;51.916;8.378;2023-06-24T11:51:54;34.20;43.10
35381;DHT22;21486;51.916;8.378;2023-06-24T11:54:20;34.50;42.10
35381;DHT22;21486;51.916;8.378;2023-06-24T11:56:52;34.40;42.30
35381;DHT22;21486;51.916;8.378;2023-06-24T11:59:21;34.10;42.00
35381;DHT22;21486;51.916;8.378;2023-06-24T12:01:58;33.50;42.30
35381;DHT22;21486;51.916;8.378;2023-06-24T12:04:31;33.60;43.90
35381;DHT22;21486;51.916;8.378;2023-06-24T12:06:57;34.20;42.80
35381;DHT22;21486;51.916;8.378;2023-06-24T12:09:23;34.10;42.10
35381;DHT22;21486;51.916;8.378;2023-06-24T12:11:49;33.90;44.00
35381;DHT22;21486;51.916;8.378;2023-06-24T12:14:14;33.40;45.50
35381;DHT22;21486;51.916;8.378;2023-06-24T12:16:40;31.50;46.70
35381;DHT22;21486;51.916;8.378;2023-06-24T12:19:08;31.60;46.00
35381;DHT22;21486;51.916;8.378;2023-06-24T12:21:33;31.90;47.10
35381;DHT22;21486;51.916;8.378;2023-06-24T12:23:59;31.70;45.30
35381;DHT22;21486;51.916;8.378;2023-06-24T12:26:24;31.50;45.00
35381;DHT22;21486;51.916;8.378;2023-06-24T12:28:50;31.10;46.30
35381;DHT22;21486;51.916;8.378;2023-06-24T12:31:15;30.90;47.40
35381;DHT22;21486;51.916;8.378;2023-06-24T12:33:41;30.90;47.70
35381;DHT22;21486;51.916;8.378;2023-06-24T12:36:06;30.60;46.80
35381;DHT22;21486;51.916;8.378;2023-06-24T12:38:32;30.30;46.50
35381;DHT22;21486;51.916;8.378;2023-06-24T12:40:57;30.20;46.70
35381;DHT22;21486;51.916;8.378;2023-06-24T12:43:23;30.30;49.40
35381;DHT22;21486;51.916;8.378;2023-06-24T12:45:49;30.40;47.50
35381;DHT22;21486;51.916;8.378;2023-06-24T12:48:16;30.10;50.50
35381;DHT22;21486;51.916;8.378;2023-06-24T12:50:41;30.10;48.90
35381;DHT22;21486;51.916;8.378;2023-06-24T12:53:07;30.20;46.60
35381;DHT22;21486;51.916;8.378;2023-06-24T12:55:33;30.30;47.50
35381;DHT22;21486;51.916;8.378;2023-06-24T12:57:58;30.30;48.80
35381;DHT22;21486;51.916;8.378;2023-06-24T13:00:24;30.40;49.40
35381;DHT22;21486;51.916;8.378;2023-06-24T13:02:50;30.10;48.70
35381;DHT22;21486;51.916;8.378;2023-06-24T13:05:16;29.60;51.10
35381;DHT22;21486;51.916;8.378;2023-06-24T13:07:41;29.30;50.10
35381;DHT22;21486;51.916;8.378;2023-06-24T13:10:07;28.90;52.10
35381;DHT22;21486;51.916;8.378;2023-06-24T13:12:33;28.90;52.80
35381;DHT22;21486;51.916;8.378;2023-06-24T13:14:58;29.00;50.40
35381;DHT22;21486;51.916;8.378;2023-06-24T13:17:23;29.20;51.00
35381;DHT22;21486;51.916;8.378;2023-06-24T13:19:50;29.50;50.50
35381;DHT22;21486;51.916;8.378;2023-06-24T13:22:15;29.70;50.40
35381;DHT22;21486;51.916;8.378;2023-06-24T13:24:40;29.60;51.20
35381;DHT22;21486;51.916;8.378;2023-06-24T13:27:06;29.80;50.80
35381;DHT22;21486;51.916;8.378;2023-06-24T13:29:32;29.90;50.50
35381;DHT22;21486;51.916;8.378;2023-06-24T13:31:57;29.90;50.70
35381;DHT22;21486;51.916;8.378;2023-06-24T13:34:22;29.90;52.80
35381;DHT22;21486;51.916;8.378;2023-06-24T13:36:48;30.00;52.00
35381;DHT22;21486;51.916;8.378;2023-06-24T13:39:13;29.50;50.20
35381;DHT22;21486;51.916;8.378;2023-06-24T13:41:42;29.30;53.60
35381;DHT22;21486;51.916;8.378;2023-06-24T13:44:08;29.10;52.70
35381;DHT22;21486;51.916;8.378;2023-06-24T13:46:33;29.00;54.50
35381;DHT22;21486;51.916;8.378;2023-06-24T13:48:59;29.20;54.30
35381;DHT22;21486;51.916;8.378;2023-06-24T13:51:24;29.10;52.60
35381;DHT22;21486;51.916;8.378;2023-06-24T13:53:51;29.10;54.70
35381;DHT22;21486;51.916;8.378;2023-06-24T13:56:17;29.20;53.60
35381;DHT22;21486;51.916;8.378;2023-06-24T13:58:43;29.20;55.70
35381;DHT22;21486;51.916;8.378;2023-06-24T14:01:08;29.30;55.70
35381;DHT22;21486;51.916;8.378;2023-06-24T14:03:34;29.40;51.40
35381;DHT22;21486;51.916;8.378;2023-06-24T14:05:59;29.40;52.00
35381;DHT22;21486;51.916;8.378;2023-06-24T14:08:27;29.40;52.00
35381;DHT22;21486;51.916;8.378;2023-06-24T14:10:53;29.50;53.70
35381;DHT22;21486;51.916;8.378;2023-06-24T14:13:18;29.30;51.60
35381;DHT22;21486;51.916;8.378;2023-06-24T14:15:44;29.40;54.10
35381;DHT22;21486;51.916;8.378;2023-06-24T14:18:09;29.60;53.90
35381;DHT22;21486;51.916;8.378;2023-06-24T14:20:35;29.40;52.90
35381;DHT22;21486;51.916;8.378;2023-06-24T14:23:00;29.50;51.10
35381;DHT22;21486;51.916;8.378;2023-06-24T14:25:26;29.50;52.80
35381;DHT22;21486;51.916;8.378;2023-06-24T14:27:51;29.60;53.00
35381;DHT22;21486;51.916;8.378;2023-06-24T14:30:17;29.70;50.80
35381;DHT22;21486;51.916;8.378;2023-06-24T14:32:43;29.50;52.60
35381;DHT22;21486;51.916;8.378;2023-06-24T14:35:08;29.60;52.80
35381;DHT22;21486;51.916;8.378;2023-06-24T14:37:34;29.60;50.40
35381;DHT22;21486;51.916;8.378;2023-06-24T14:39:59;29.60;52.30
35381;DHT22;21486;51.916;8.378;2023-06-24T14:42:24;29.70;48.60
35381;DHT22;21486;51.916;8.378;2023-06-24T14:44:50;29.60;50.20
35381;DHT22;21486;51.916;8.378;2023-06-24T14:47:15;29.60;54.40
35381;DHT22;21486;51.916;8.378;2023-06-24T14:49:41;29.50;52.30
35381;DHT22;21486;51.916;8.378;2023-06-24T14:52:06;29.80;52.00
35381;DHT22;21486;51.916;8.378;2023-06-24T14:54:32;29.90;51.00
35381;DHT22;21486;51.916;8.378;2023-06-24T14:56:57;29.80;53.10
35381;DHT22;21486;51.916;8.378;2023-06-24T14:59:23;29.90;51.70
35381;DHT22;21486;51.916;8.378;2023-06-24T15:01:48;29.60;51.50
35381;DHT22;21486;51.916;8.378;2023-06-24T15:04:13;29.40;52.20
35381;DHT22;21486;51.916;8.378;2023-06-24T15:06:39;29.30;52.10
35381;DHT22;21486;51.916;8.378;2023-06-24T15:09:04;29.20;53.10
35381;DHT22;21486;51.916;8.378;2023-06-24T15:11:30;29.10;51.60
35381;DHT22;21486;51.916;8.378;2023-06-24T15:13:55;29.20;51.60
35381;DHT22;21486;51.916;8.378;2023-06-24T15:16:21;29.40;51.60
35381;DHT22;21486;51.916;8.378;2023-06-24T15:18:46;29.50;54.10
35381;DHT22;21486;51.916;8.378;2023-06-24T15:21:13;29.60;53.00
35381;DHT22;21486;51.916;8.378;2023-06-24T15:23:38;29.70;50.50
35381;DHT22;21486;51.916;8.378;2023-06-24T15:26:04;29.60;52.50
35381;DHT22;21486;51.916;8.378;2023-06-24T15:28:29;29.50;50.40
35381;DHT22;21486;51.916;8.378;2023-06-24T15:30:55;29.20;49.90
35381;DHT22;21486;51.916;8.378;2023-06-24T15:33:20;29.40;51.90
35381;DHT22;21486;51.916;8.378;2023-06-24T15:35:46;29.40;51.40
35381;DHT22;21486;51.916;8.378;2023-06-24T15:38:11;29.50;51.20
35381;DHT22;21486;51.916;8.378;2023-06-24T15:40:39;29.50;50.00